sensor_id;sensor_type;location;lat;lon;timestamp;temperature;humidity
14252;DHT22;7210;51.502;10.722;2023-03-01T00:01:04;-4.80;99.90
14252;DHT22;7210;51.502;10.722;2023-03-01T00:03:34;-4.90;99.90
14252;DHT22;7210;51.502;10.722;2023-03-01T00:06:01;-4.80;99.90
14252;DHT22;7210;51.502;10.722;2023-03-01T00:08:30;-4.80;99.90
14252;DHT22;7210;51.502;10.722;2023-03-01T00:11:03;-4.90;99.90
14252;DHT22;7210;51.502;10.722;2023-03-01T00:13:32;-4.90;99.90
14252;DHT22;7210;51.502;10.722;2023-03-01T00:16:04;-4.90;99.90
14252;DHT22;7210;51.502;10.722;2023-03-01T00:18:31;-4.90;99.90
14252;DHT22;7210;51.502;10.722;2023-03-01T00:20:59;-4.80;99.90
14252;DHT22;7210;51.502;10.722;2023-03-01T00:23:26;-4.80;99.90
14252;DHT22;7210;51.502;10.722;2023-03-01T00:25:54;-4.90;99.90
14252;DHT22;7210;51.502;10.722;2023-03-01T00:28:21;-4.80;99.90
14252;DHT22;7210;51.502;10.722;2023-03-01T00:30:49;-4.90;99.90
14252;DHT22;7210;51.502;10.722;2023-03-01T00:33:18;-4.90;99.90
14252;DHT22;7210;51.502;10.722;2023-03-01T00:35:45;-5.00;99.90
14252;DHT22;7210;51.502;10.722;2023-03-01T00:38:12;-5.10;99.90
14252;DHT22;7210;51.502;10.722;2023-03-01T00:40:39;-5.10;99.90
14252;DHT22;7210;51.502;10.722;2023-03-01T00:43:06;-5.10;99.90
14252;DHT22;7210;51.502;10.722;2023-03-01T00:45:33;-5.10;99.90
14252;DHT22;7210;51.502;10.722;2023-03-01T00:48:01;-5.10;99.90
14252;DHT22;7210;51.502;10.722;2023-03-01T00:50:29;-5.00;99.90
14252;DHT22;7210;51.502;10.722;2023-03-01T00:52:56;-5.10;99.90
14252;DHT22;7210;51.502;10.722;2023-03-01T00:55:24;-5.10;99.90
14252;DHT22;7210;51.502;10.722;2023-03-01T00:57:52;-5.10;99.90
14252;DHT22;7210;51.502;10.722;2023-03-01T01:00:20;-5.10;99.90
14252;DHT22;7210;51.502;10.722;2023-03-01T01:02:48;-5.10;99.90
14252;DHT22;7210;51.502;10.722;2023-03-01T01:05:15;-5.20;99.90
14252;DHT22;7210;51.502;10.722;2023-03-01T01:07:48;-5.20;99.90
14252;DHT22;7210;51.502;10.722;2023-03-01T01:10:15;-5.30;99.90
14252;DHT22;7210;51.502;10.722;2023-03-01T01:12:47;-5.20;99.90
14252;DHT22;7210;51.502;10.722;2023-03-01T01:15:14;-5.20;99.90
14252;DHT22;7210;51.502;10.722;2023-03-01T01:17:46;-5.20;99.90
14252;DHT22;7210;51.502;10.722;2023-03-01T01:20:13;-5.30;99.90
14252;DHT22;7210;51.502;10.722;2023-03-01T01:22:40;-5.30;99.90
14252;DHT22;7210;51.502;10.722;2023-03-01T01:25:09;-5.30;99.90
14252;DHT22;7210;51.502;10.722;2023-03-01T01:27:37;-5.30;99.90
14252;DHT22;7210;51.502;10.722;2023-03-01T01:30:05;-5.40;99.90
14252;DHT22;7210;51.502;10.722;2023-03-01T01:32:34;-5.40;99.90
14252;DHT22;7210;51.502;10.722;2023-03-01T01:35:01;-5.50;99.90
14252;DHT22;7210;51.502;10.722;2023-03-01T01:37:29;-5.50;99.90
14252;DHT22;7210;51.502;10.722;2023-03-01T01:39:59;-5.50;99.90
14252;DHT22;7210;51.502;10.722;2023-03-01T01:42:28;-5.50;99.90
14252;DHT22;7210;51.502;10.722;2023-03-01T01:48:06;-5.60;99.90
14252;DHT22;7210;51.502;10.722;2023-03-01T01:50:40;-5.70;99.90
14252;DHT22;7210;51.502;10.722;2023-03-01T01:53:12;-5.70;99.90
14252;DHT22;7210;51.502;10.722;2023-03-01T01:55:46;-5.70;99.90
14252;DHT22;7210;51.502;10.722;2023-03-01T01:58:19;-5.60;99.90
14252;DHT22;7210;51.502;10.722;2023-03-01T02:00:49;-5.60;99.90
14252;DHT22;7210;51.502;10.722;2023-03-01T02:03:20;-5.60;99.90
14252;DHT22;7210;51.502;10.722;2023-03-01T02:05:55;-5.70;99.90
14252;DHT22;7210;51.502;10.722;2023-03-01T02:08:28;-5.70;99.90
14252;DHT22;7210;51.502;10.722;2023-03-01T02:10:58;-5.70;99.90
14252;DHT22;7210;51.502;10.722;2023-03-01T02:13:28;-5.60;99.90
14252;DHT22;7210;51.502;10.722;2023-03-01T02:15:56;-5.60;99.90
14252;DHT22;7210;51.502;10.722;2023-03-01T02:18:24;-5.60;96.50
14252;DHT22;7210;51.502;10.722;2023-03-01T02:21:03;-5.60;99.90
14252;DHT22;7210;51.502;10.722;2023-03-01T02:23:37;-5.50;99.90
14252;DHT22;7210;51.502;10.722;2023-03-01T02:26:10;-5.50;99.90
14252;DHT22;7210;51.502;10.722;2023-03-01T02:28:47;-5.50;99.90
14252;DHT22;7210;51.502;10.722;2023-03-01T02:31:18;-5.40;99.90
14252;DHT22;7210;51.502;10.722;2023-03-01T02:34:05;-5.40;99.90
14252;DHT22;7210;51.502;10.722;2023-03-01T02:36:37;-5.30;99.90
14252;DHT22;7210;51.502;10.722;2023-03-01T02:39:07;-5.40;99.90
14252;DHT22;7210;51.502;10.722;2023-03-01T02:41:48;-5.50;99.90
14252;DHT22;7210;51.502;10.722;2023-03-01T02:44:20;-5.50;99.90
14252;DHT22;7210;51.502;10.722;2023-03-01T02:46:51;-5.50;99.90
14252;DHT22;7210;51.502;10.722;2023-03-01T02:49:22;-5.60;99.90
14252;DHT22;7210;51.502;10.722;2023-03-01T02:52:05;-5.60;99.90
14252;DHT22;7210;51.502;10.722;2023-03-01T02:54:48;-5.70;99.90
14252;DHT22;7210;51.502;10.722;2023-03-01T02:57:22;-5.80;99.90
14252;DHT22;7210;51.502;10.722;2023-03-01T02:59:53;-5.80;98.40
14252;DHT22;7210;51.502;10.722;2023-03-01T03:05:50;-5.80;96.50
14252;DHT22;7210;51.502;10.722;2023-03-01T03:08:17;-5.80;93.50
14252;DHT22;7210;51.502;10.722;2023-03-01T03:10:50;-5.90;94.30
14252;DHT22;7210;51.502;10.722;2023-03-01T03:16:45;-6.00;91.10
14252;DHT22;7210;51.502;10.722;2023-03-01T03:19:15;-5.90;84.90
14252;DHT22;7210;51.502;10.722;2023-03-01T03:21:43;-5.90;81.30
14252;DHT22;7210;51.502;10.722;2023-03-01T03:24:11;-5.90;82.40
14252;DHT22;7210;51.502;10.722;2023-03-01T03:26:39;-5.90;81.50
14252;DHT22;7210;51.502;10.722;2023-03-01T03:29:06;-5.90;99.90
14252;DHT22;7210;51.502;10.722;2023-03-01T03:31:33;-5.90;79.50
14252;DHT22;7210;51.502;10.722;2023-03-01T03:34:02;-5.90;79.00
14252;DHT22;7210;51.502;10.722;2023-03-01T03:36:29;-5.90;77.40
14252;DHT22;7210;51.502;10.722;2023-03-01T03:38:56;-5.90;75.90
14252;DHT22;7210;51.502;10.722;2023-03-01T03:41:24;-5.90;74.90
14252;DHT22;7210;51.502;10.722;2023-03-01T03:43:51;-5.90;99.90
14252;DHT22;7210;51.502;10.722;2023-03-01T03:46:18;-5.90;82.10
14252;DHT22;7210;51.502;10.722;2023-03-01T03:48:45;-5.90;79.10
14252;DHT22;7210;51.502;10.722;2023-03-01T03:51:16;-6.00;81.70
14252;DHT22;7210;51.502;10.722;2023-03-01T03:53:45;-5.90;79.90
14252;DHT22;7210;51.502;10.722;2023-03-01T03:56:12;-5.90;80.00
14252;DHT22;7210;51.502;10.722;2023-03-01T03:58:40;-6.00;82.80
14252;DHT22;7210;51.502;10.722;2023-03-01T04:01:07;-6.00;83.10
14252;DHT22;7210;51.502;10.722;2023-03-01T04:03:34;-6.00;84.30
14252;DHT22;7210;51.502;10.722;2023-03-01T04:06:02;-6.10;84.00
14252;DHT22;7210;51.502;10.722;2023-03-01T04:08:33;-6.10;81.90
14252;DHT22;7210;51.502;10.722;2023-03-01T04:11:01;-6.10;83.60
14252;DHT22;7210;51.502;10.722;2023-03-01T04:13:52;-6.20;82.50
14252;DHT22;7210;51.502;10.722;2023-03-01T04:16:20;-6.10;81.00
14252;DHT22;7210;51.502;10.722;2023-03-01T04:18:48;-6.10;79.90
14252;DHT22;7210;51.502;10.722;2023-03-01T04:21:16;-6.10;80.80
14252;DHT22;7210;51.502;10.722;2023-03-01T04:23:47;-6.10;80.50
14252;DHT22;7210;51.502;10.722;2023-03-01T04:26:18;-6.20;81.70
14252;DHT22;7210;51.502;10.722;2023-03-01T04:28:52;-6.20;80.60
14252;DHT22;7210;51.502;10.722;2023-03-01T04:31:20;-6.30;80.40
14252;DHT22;7210;51.502;10.722;2023-03-01T04:33:49;-6.30;79.10
14252;DHT22;7210;51.502;10.722;2023-03-01T04:36:19;-6.40;77.90
14252;DHT22;7210;51.502;10.722;2023-03-01T04:38:49;-6.40;76.00
14252;DHT22;7210;51.502;10.722;2023-03-01T04:41:18;-6.40;74.80
14252;DHT22;7210;51.502;10.722;2023-03-01T04:43:47;-6.50;96.00
14252;DHT22;7210;51.502;10.722;2023-03-01T04:46:16;-6.40;74.00
14252;DHT22;7210;51.502;10.722;2023-03-01T04:48:45;-6.50;69.10
14252;DHT22;7210;51.502;10.722;2023-03-01T04:51:13;-6.50;72.70
14252;DHT22;7210;51.502;10.722;2023-03-01T04:53:42;-6.50;68.00
14252;DHT22;7210;51.502;10.722;2023-03-01T04:56:11;-6.50;68.20
14252;DHT22;7210;51.502;10.722;2023-03-01T04:58:40;-6.50;67.10
14252;DHT22;7210;51.502;10.722;2023-03-01T05:01:11;-6.50;65.80
14252;DHT22;7210;51.502;10.722;2023-03-01T05:03:42;-6.50;65.00
14252;DHT22;7210;51.502;10.722;2023-03-01T05:06:10;-6.50;65.10
14252;DHT22;7210;51.502;10.722;2023-03-01T05:08:38;-6.50;62.50
14252;DHT22;7210;51.502;10.722;2023-03-01T05:11:06;-6.50;64.00
14252;DHT22;7210;51.502;10.722;2023-03-01T05:13:36;-6.50;61.50
14252;DHT22;7210;51.502;10.722;2023-03-01T05:16:06;-6.50;62.30
14252;DHT22;7210;51.502;10.722;2023-03-01T05:18:36;-6.50;64.00
14252;DHT22;7210;51.502;10.722;2023-03-01T05:21:07;-6.50;64.40
14252;DHT22;7210;51.502;10.722;2023-03-01T05:23:35;-6.60;65.10
14252;DHT22;7210;51.502;10.722;2023-03-01T05:26:04;-6.60;64.30
14252;DHT22;7210;51.502;10.722;2023-03-01T05:28:32;-6.50;61.80
14252;DHT22;7210;51.502;10.722;2023-03-01T05:31:01;-6.60;64.10
14252;DHT22;7210;51.502;10.722;2023-03-01T05:33:28;-6.60;61.50
14252;DHT22;7210;51.502;10.722;2023-03-01T05:36:00;-6.50;68.00
14252;DHT22;7210;51.502;10.722;2023-03-01T05:38:27;-6.50;68.10
14252;DHT22;7210;51.502;10.722;2023-03-01T05:40:54;-6.50;90.10
14252;DHT22;7210;51.502;10.722;2023-03-01T05:43:21;-6.50;66.40
14252;DHT22;7210;51.502;10.722;2023-03-01T05:45:48;-6.50;66.00
14252;DHT22;7210;51.502;10.722;2023-03-01T05:48:18;-6.50;69.20
14252;DHT22;7210;51.502;10.722;2023-03-01T05:50:46;-6.60;69.30
14252;DHT22;7210;51.502;10.722;2023-03-01T05:53:15;-6.60;66.40
14252;DHT22;7210;51.502;10.722;2023-03-01T05:55:47;-6.60;63.00
14252;DHT22;7210;51.502;10.722;2023-03-01T05:58:18;-6.60;63.00
14252;DHT22;7210;51.502;10.722;2023-03-01T06:00:48;-6.50;60.00
14252;DHT22;7210;51.502;10.722;2023-03-01T06:03:18;-6.50;66.70
14252;DHT22;7210;51.502;10.722;2023-03-01T06:05:45;-6.50;61.60
14252;DHT22;7210;51.502;10.722;2023-03-01T06:08:13;-6.50;62.60
14252;DHT22;7210;51.502;10.722;2023-03-01T06:10:40;-6.50;64.40
14252;DHT22;7210;51.502;10.722;2023-03-01T06:13:08;-6.50;62.30
14252;DHT22;7210;51.502;10.722;2023-03-01T06:15:35;-6.50;65.00
14252;DHT22;7210;51.502;10.722;2023-03-01T06:18:02;-6.50;64.50
14252;DHT22;7210;51.502;10.722;2023-03-01T06:20:31;-6.50;66.00
14252;DHT22;7210;51.502;10.722;2023-03-01T06:22:59;-6.60;65.70
14252;DHT22;7210;51.502;10.722;2023-03-01T06:25:27;-6.60;63.30
14252;DHT22;7210;51.502;10.722;2023-03-01T06:27:54;-6.60;59.60
14252;DHT22;7210;51.502;10.722;2023-03-01T06:30:25;-6.60;59.10
14252;DHT22;7210;51.502;10.722;2023-03-01T06:32:54;-6.50;56.80
14252;DHT22;7210;51.502;10.722;2023-03-01T06:35:26;-6.50;58.60
14252;DHT22;7210;51.502;10.722;2023-03-01T06:37:58;-6.30;60.20
14252;DHT22;7210;51.502;10.722;2023-03-01T06:40:26;-6.30;62.90
14252;DHT22;7210;51.502;10.722;2023-03-01T06:42:53;-6.30;62.60
14252;DHT22;7210;51.502;10.722;2023-03-01T06:45:23;-6.30;65.70
14252;DHT22;7210;51.502;10.722;2023-03-01T06:47:51;-6.30;64.50
14252;DHT22;7210;51.502;10.722;2023-03-01T06:50:18;-6.20;64.90
14252;DHT22;7210;51.502;10.722;2023-03-01T06:52:46;-6.20;64.20
14252;DHT22;7210;51.502;10.722;2023-03-01T06:55:15;-6.20;62.60
14252;DHT22;7210;51.502;10.722;2023-03-01T06:57:42;-6.10;66.50
14252;DHT22;7210;51.502;10.722;2023-03-01T07:00:10;-6.00;66.70
14252;DHT22;7210;51.502;10.722;2023-03-01T07:02:38;-6.00;65.00
14252;DHT22;7210;51.502;10.722;2023-03-01T07:05:07;-5.90;90.70
14252;DHT22;7210;51.502;10.722;2023-03-01T07:07:38;-5.80;68.40
14252;DHT22;7210;51.502;10.722;2023-03-01T07:10:06;-5.70;70.50
14252;DHT22;7210;51.502;10.722;2023-03-01T07:12:36;-5.50;75.10
14252;DHT22;7210;51.502;10.722;2023-03-01T07:15:04;-5.40;99.90
14252;DHT22;7210;51.502;10.722;2023-03-01T07:17:35;-5.30;83.40
14252;DHT22;7210;51.502;10.722;2023-03-01T07:20:02;-5.20;86.70
14252;DHT22;7210;51.502;10.722;2023-03-01T07:22:29;-5.10;87.80
14252;DHT22;7210;51.502;10.722;2023-03-01T07:24:57;-5.10;93.00
14252;DHT22;7210;51.502;10.722;2023-03-01T07:27:24;-5.00;91.00
14252;DHT22;7210;51.502;10.722;2023-03-01T07:29:52;-4.90;96.10
14252;DHT22;7210;51.502;10.722;2023-03-01T07:32:20;-4.80;96.80
14252;DHT22;7210;51.502;10.722;2023-03-01T07:34:47;-4.70;99.90
14252;DHT22;7210;51.502;10.722;2023-03-01T07:37:14;-4.60;99.90
14252;DHT22;7210;51.502;10.722;2023-03-01T07:39:41;-4.50;99.90
14252;DHT22;7210;51.502;10.722;2023-03-01T07:42:08;-4.40;99.90
14252;DHT22;7210;51.502;10.722;2023-03-01T07:44:35;-4.30;99.90
14252;DHT22;7210;51.502;10.722;2023-03-01T07:47:04;-4.20;99.90
14252;DHT22;7210;51.502;10.722;2023-03-01T07:49:31;-4.00;99.90
14252;DHT22;7210;51.502;10.722;2023-03-01T07:51:59;-4.00;99.90
14252;DHT22;7210;51.502;10.722;2023-03-01T07:54:26;-3.90;99.90
14252;DHT22;7210;51.502;10.722;2023-03-01T07:56:53;-3.80;99.90
14252;DHT22;7210;51.502;10.722;2023-03-01T07:59:21;-3.70;99.90
14252;DHT22;7210;51.502;10.722;2023-03-01T08:01:49;-3.60;99.90
14252;DHT22;7210;51.502;10.722;2023-03-01T08:04:17;-3.50;99.90
14252;DHT22;7210;51.502;10.722;2023-03-01T08:06:44;-3.40;99.90
14252;DHT22;7210;51.502;10.722;2023-03-01T08:09:12;-3.20;99.90
14252;DHT22;7210;51.502;10.722;2023-03-01T08:11:40;-3.10;99.90
14252;DHT22;7210;51.502;10.722;2023-03-01T08:14:07;-2.90;99.90
14252;DHT22;7210;51.502;10.722;2023-03-01T08:16:34;-1.70;99.90
14252;DHT22;7210;51.502;10.722;2023-03-01T08:19:04;-0.80;99.90
14252;DHT22;7210;51.502;10.722;2023-03-01T08:21:33;-0.10;99.90
14252;DHT22;7210;51.502;10.722;2023-03-01T08:24:01;-0.20;99.90
14252;DHT22;7210;51.502;10.722;2023-03-01T08:26:28;-0.40;99.90
14252;DHT22;7210;51.502;10.722;2023-03-01T08:28:56;-0.70;99.90
14252;DHT22;7210;51.502;10.722;2023-03-01T08:31:26;-1.00;99.90
14252;DHT22;7210;51.502;10.722;2023-03-01T08:33:56;-1.20;99.90
14252;DHT22;7210;51.502;10.722;2023-03-01T08:36:31;-1.30;99.90
14252;DHT22;7210;51.502;10.722;2023-03-01T08:39:01;-1.30;99.90
14252;DHT22;7210;51.502;10.722;2023-03-01T08:41:28;-1.30;99.90
14252;DHT22;7210;51.502;10.722;2023-03-01T08:43:56;-1.30;99.90
14252;DHT22;7210;51.502;10.722;2023-03-01T08:46:25;-1.30;99.90
14252;DHT22;7210;51.502;10.722;2023-03-01T08:48:53;-1.20;99.90
14252;DHT22;7210;51.502;10.722;2023-03-01T08:51:24;-1.00;99.90
14252;DHT22;7210;51.502;10.722;2023-03-01T08:53:53;-0.10;99.90
14252;DHT22;7210;51.502;10.722;2023-03-01T08:56:20;0.00;99.90
14252;DHT22;7210;51.502;10.722;2023-03-01T08:58:49;0.00;99.90
14252;DHT22;7210;51.502;10.722;2023-03-01T09:01:18;0.00;99.90
14252;DHT22;7210;51.502;10.722;2023-03-01T09:03:46;-0.10;99.90
14252;DHT22;7210;51.502;10.722;2023-03-01T09:06:14;-0.20;99.90
14252;DHT22;7210;51.502;10.722;2023-03-01T09:08:43;-0.30;99.90
14252;DHT22;7210;51.502;10.722;2023-03-01T09:11:15;-0.40;99.90
14252;DHT22;7210;51.502;10.722;2023-03-01T09:13:47;-0.40;99.90
14252;DHT22;7210;51.502;10.722;2023-03-01T09:16:17;-0.40;99.90
14252;DHT22;7210;51.502;10.722;2023-03-01T09:18:49;-0.40;99.90
14252;DHT22;7210;51.502;10.722;2023-03-01T09:21:18;-0.30;99.90
14252;DHT22;7210;51.502;10.722;2023-03-01T09:23:47;-0.20;99.90
14252;DHT22;7210;51.502;10.722;2023-03-01T09:26:18;-0.10;99.90
14252;DHT22;7210;51.502;10.722;2023-03-01T09:28:49;-0.10;99.90
14252;DHT22;7210;51.502;10.722;2023-03-01T09:31:19;0.10;99.90
14252;DHT22;7210;51.502;10.722;2023-03-01T09:33:48;0.20;99.90
14252;DHT22;7210;51.502;10.722;2023-03-01T09:36:20;0.20;99.90
14252;DHT22;7210;51.502;10.722;2023-03-01T09:38:49;0.30;99.90
14252;DHT22;7210;51.502;10.722;2023-03-01T09:41:30;0.40;99.90
14252;DHT22;7210;51.502;10.722;2023-03-01T09:44:21;0.50;99.90
14252;DHT22;7210;51.502;10.722;2023-03-01T09:46:58;0.70;99.90
14252;DHT22;7210;51.502;10.722;2023-03-01T09:49:28;0.80;99.90
14252;DHT22;7210;51.502;10.722;2023-03-01T09:52:02;0.90;99.90
14252;DHT22;7210;51.502;10.722;2023-03-01T09:54:38;0.90;99.90
14252;DHT22;7210;51.502;10.722;2023-03-01T09:57:14;1.10;99.90
14252;DHT22;7210;51.502;10.722;2023-03-01T09:59:57;1.10;99.90
14252;DHT22;7210;51.502;10.722;2023-03-01T10:02:38;1.10;99.90
14252;DHT22;7210;51.502;10.722;2023-03-01T10:05:27;1.30;99.90
14252;DHT22;7210;51.502;10.722;2023-03-01T10:08:31;1.30;99.90
14252;DHT22;7210;51.502;10.722;2023-03-01T10:11:05;1.40;99.90
14252;DHT22;7210;51.502;10.722;2023-03-01T10:13:50;1.60;99.90
14252;DHT22;7210;51.502;10.722;2023-03-01T10:16:28;1.70;99.90
14252;DHT22;7210;51.502;10.722;2023-03-01T10:19:03;1.80;99.90
14252;DHT22;7210;51.502;10.722;2023-03-01T10:21:36;1.80;99.90
14252;DHT22;7210;51.502;10.722;2023-03-01T10:24:14;1.90;99.90
14252;DHT22;7210;51.502;10.722;2023-03-01T10:26:51;1.90;99.90
14252;DHT22;7210;51.502;10.722;2023-03-01T10:29:26;2.00;99.90
14252;DHT22;7210;51.502;10.722;2023-03-01T10:31:58;2.20;99.90
14252;DHT22;7210;51.502;10.722;2023-03-01T10:34:33;2.30;99.90
14252;DHT22;7210;51.502;10.722;2023-03-01T10:37:08;2.30;99.90
14252;DHT22;7210;51.502;10.722;2023-03-01T10:39:54;2.30;99.90
14252;DHT22;7210;51.502;10.722;2023-03-01T10:42:29;2.50;99.90
14252;DHT22;7210;51.502;10.722;2023-03-01T10:45:15;2.60;99.90
14252;DHT22;7210;51.502;10.722;2023-03-01T10:48:04;2.70;99.90
14252;DHT22;7210;51.502;10.722;2023-03-01T10:50:38;2.80;99.90
14252;DHT22;7210;51.502;10.722;2023-03-01T10:53:23;2.80;99.90
14252;DHT22;7210;51.502;10.722;2023-03-01T10:55:59;2.90;99.90
14252;DHT22;7210;51.502;10.722;2023-03-01T10:58:30;3.00;99.90
14252;DHT22;7210;51.502;10.722;2023-03-01T11:01:01;3.00;99.90
14252;DHT22;7210;51.502;10.722;2023-03-01T11:03:31;3.10;99.90
14252;DHT22;7210;51.502;10.722;2023-03-01T11:06:03;3.10;99.90
14252;DHT22;7210;51.502;10.722;2023-03-01T11:08:38;3.20;99.90
14252;DHT22;7210;51.502;10.722;2023-03-01T11:11:21;3.30;99.90
14252;DHT22;7210;51.502;10.722;2023-03-01T11:13:55;3.30;99.90
14252;DHT22;7210;51.502;10.722;2023-03-01T11:16:37;3.40;99.90
14252;DHT22;7210;51.502;10.722;2023-03-01T11:19:18;3.50;99.90
14252;DHT22;7210;51.502;10.722;2023-03-01T11:22:01;3.60;99.90
14252;DHT22;7210;51.502;10.722;2023-03-01T11:24:36;3.80;99.90
14252;DHT22;7210;51.502;10.722;2023-03-01T11:27:28;3.90;99.90
14252;DHT22;7210;51.502;10.722;2023-03-01T11:30:02;4.10;99.90
14252;DHT22;7210;51.502;10.722;2023-03-01T11:32:40;4.20;99.90
14252;DHT22;7210;51.502;10.722;2023-03-01T11:35:14;4.20;99.90
14252;DHT22;7210;51.502;10.722;2023-03-01T11:37:56;4.20;99.90
14252;DHT22;7210;51.502;10.722;2023-03-01T11:40:33;4.30;99.90
14252;DHT22;7210;51.502;10.722;2023-03-01T11:43:09;4.40;99.90
14252;DHT22;7210;51.502;10.722;2023-03-01T11:45:51;4.60;99.90
14252;DHT22;7210;51.502;10.722;2023-03-01T11:48:46;4.70;99.90
14252;DHT22;7210;51.502;10.722;2023-03-01T11:51:41;4.90;99.90
14252;DHT22;7210;51.502;10.722;2023-03-01T11:54:25;4.90;99.90
14252;DHT22;7210;51.502;10.722;2023-03-01T11:57:20;5.00;99.90
14252;DHT22;7210;51.502;10.722;2023-03-01T12:00:13;5.10;99.90
14252;DHT22;7210;51.502;10.722;2023-03-01T12:03:21;5.20;99.90
14252;DHT22;7210;51.502;10.722;2023-03-01T12:06:24;5.20;99.90
14252;DHT22;7210;51.502;10.722;2023-03-01T12:09:14;5.30;99.90
14252;DHT22;7210;51.502;10.722;2023-03-01T12:12:00;5.20;99.90
14252;DHT22;7210;51.502;10.722;2023-03-01T12:14:51;5.30;99.90
14252;DHT22;7210;51.502;10.722;2023-03-01T12:18:10;5.50;99.90
14252;DHT22;7210;51.502;10.722;2023-03-01T12:20:50;5.40;99.90
14252;DHT22;7210;51.502;10.722;2023-03-01T12:26:59;5.60;99.90
14252;DHT22;7210;51.502;10.722;2023-03-01T12:29:54;5.60;99.90
14252;DHT22;7210;51.502;10.722;2023-03-01T12:32:47;5.70;99.90
14252;DHT22;7210;51.502;10.722;2023-03-01T12:35:39;5.70;99.90
14252;DHT22;7210;51.502;10.722;2023-03-01T12:38:31;5.70;99.90
14252;DHT22;7210;51.502;10.722;2023-03-01T12:41:32;5.70;99.90
14252;DHT22;7210;51.502;10.722;2023-03-01T12:44:24;5.70;99.90
14252;DHT22;7210;51.502;10.722;2023-03-01T12:47:15;5.90;99.90
14252;DHT22;7210;51.502;10.722;2023-03-01T12:49:55;5.80;99.90
14252;DHT22;7210;51.502;10.722;2023-03-01T12:52:31;5.90;99.90
14252;DHT22;7210;51.502;10.722;2023-03-01T12:55:09;6.10;99.90
14252;DHT22;7210;51.502;10.722;2023-03-01T12:58:00;6.00;99.90
14252;DHT22;7210;51.502;10.722;2023-03-01T13:00:39;6.00;99.90
14252;DHT22;7210;51.502;10.722;2023-03-01T13:03:21;6.00;99.90
14252;DHT22;7210;51.502;10.722;2023-03-01T13:06:04;6.10;99.90
14252;DHT22;7210;51.502;10.722;2023-03-01T13:08:41;6.30;99.90
14252;DHT22;7210;51.502;10.722;2023-03-01T13:11:18;6.30;99.90
14252;DHT22;7210;51.502;10.722;2023-03-01T13:13:49;6.30;99.90
14252;DHT22;7210;51.502;10.722;2023-03-01T13:19:15;6.30;99.90
14252;DHT22;7210;51.502;10.722;2023-03-01T13:21:44;6.20;99.90
14252;DHT22;7210;51.502;10.722;2023-03-01T13:24:28;6.20;99.90
14252;DHT22;7210;51.502;10.722;2023-03-01T13:27:22;6.20;99.90
14252;DHT22;7210;51.502;10.722;2023-03-01T13:29:57;6.30;99.90
14252;DHT22;7210;51.502;10.722;2023-03-01T13:32:32;6.20;99.90
14252;DHT22;7210;51.502;10.722;2023-03-01T13:35:00;6.20;99.90
14252;DHT22;7210;51.502;10.722;2023-03-01T13:37:35;6.20;99.90
14252;DHT22;7210;51.502;10.722;2023-03-01T13:43:33;6.30;99.90
14252;DHT22;7210;51.502;10.722;2023-03-01T13:46:09;6.30;99.90
14252;DHT22;7210;51.502;10.722;2023-03-01T13:48:44;6.30;99.90
14252;DHT22;7210;51.502;10.722;2023-03-01T13:51:21;6.30;99.90
14252;DHT22;7210;51.502;10.722;2023-03-01T13:53:52;6.20;99.90
14252;DHT22;7210;51.502;10.722;2023-03-01T13:56:24;6.20;99.90
14252;DHT22;7210;51.502;10.722;2023-03-01T13:58:56;6.20;99.90
14252;DHT22;7210;51.502;10.722;2023-03-01T14:01:30;6.20;99.90
14252;DHT22;7210;51.502;10.722;2023-03-01T14:03:59;6.20;99.90
14252;DHT22;7210;51.502;10.722;2023-03-01T14:06:28;6.20;99.90
14252;DHT22;7210;51.502;10.722;2023-03-01T14:09:04;6.20;99.90
14252;DHT22;7210;51.502;10.722;2023-03-01T14:12:03;6.20;99.90
14252;DHT22;7210;51.502;10.722;2023-03-01T14:14:46;6.20;99.90
14252;DHT22;7210;51.502;10.722;2023-03-01T14:17:40;6.20;99.90
14252;DHT22;7210;51.502;10.722;2023-03-01T14:20:19;6.10;99.90
14252;DHT22;7210;51.502;10.722;2023-03-01T14:22:50;6.10;99.90
14252;DHT22;7210;51.502;10.722;2023-03-01T14:25:23;6.10;99.90
14252;DHT22;7210;51.502;10.722;2023-03-01T14:27:58;6.20;99.90
14252;DHT22;7210;51.502;10.722;2023-03-01T14:30:32;6.20;99.90
14252;DHT22;7210;51.502;10.722;2023-03-01T14:33:06;6.10;99.90
14252;DHT22;7210;51.502;10.722;2023-03-01T14:35:54;6.10;99.90
14252;DHT22;7210;51.502;10.722;2023-03-01T14:38:28;6.10;99.90
14252;DHT22;7210;51.502;10.722;2023-03-01T14:41:00;6.10;99.90
14252;DHT22;7210;51.502;10.722;2023-03-01T14:43:30;6.00;99.90
14252;DHT22;7210;51.502;10.722;2023-03-01T14:45:59;6.00;99.90
14252;DHT22;7210;51.502;10.722;2023-03-01T14:48:28;5.90;99.90
14252;DHT22;7210;51.502;10.722;2023-03-01T14:50:59;5.80;99.90
14252;DHT22;7210;51.502;10.722;2023-03-01T14:53:28;5.80;99.90
14252;DHT22;7210;51.502;10.722;2023-03-01T14:56:01;5.70;99.90
14252;DHT22;7210;51.502;10.722;2023-03-01T14:58:31;5.70;99.90
14252;DHT22;7210;51.502;10.722;2023-03-01T15:01:01;5.60;99.90
14252;DHT22;7210;51.502;10.722;2023-03-01T15:03:34;5.60;99.90
14252;DHT22;7210;51.502;10.722;2023-03-01T15:06:05;5.50;99.90
14252;DHT22;7210;51.502;10.722;2023-03-01T15:08:34;5.50;99.90
14252;DHT22;7210;51.502;10.722;2023-03-01T15:11:05;5.50;99.90
14252;DHT22;7210;51.502;10.722;2023-03-01T15:13:44;5.40;99.90
14252;DHT22;7210;51.502;10.722;2023-03-01T15:16:12;5.40;99.90
14252;DHT22;7210;51.502;10.722;2023-03-01T15:18:46;5.40;99.90
14252;DHT22;7210;51.502;10.722;2023-03-01T15:21:18;5.40;99.90
14252;DHT22;7210;51.502;10.722;2023-03-01T15:23:50;5.30;99.90
14252;DHT22;7210;51.502;10.722;2023-03-01T15:26:25;5.20;99.90
14252;DHT22;7210;51.502;10.722;2023-03-01T15:28:56;5.10;99.90
14252;DHT22;7210;51.502;10.722;2023-03-01T15:31:26;5.10;99.90
14252;DHT22;7210;51.502;10.722;2023-03-01T15:34:10;5.00;99.90
14252;DHT22;7210;51.502;10.722;2023-03-01T15:36:49;4.90;99.90
14252;DHT22;7210;51.502;10.722;2023-03-01T15:39:35;4.90;99.90
14252;DHT22;7210;51.502;10.722;2023-03-01T15:42:06;4.80;99.90
14252;DHT22;7210;51.502;10.722;2023-03-01T15:44:37;4.80;99.90
14252;DHT22;7210;51.502;10.722;2023-03-01T15:47:22;4.70;99.90
14252;DHT22;7210;51.502;10.722;2023-03-01T15:49:55;4.70;99.90
14252;DHT22;7210;51.502;10.722;2023-03-01T15:52:26;4.60;99.90
14252;DHT22;7210;51.502;10.722;2023-03-01T15:54:57;4.60;99.90
14252;DHT22;7210;51.502;10.722;2023-03-01T15:57:26;4.50;99.90
14252;DHT22;7210;51.502;10.722;2023-03-01T15:59:53;4.40;99.90
14252;DHT22;7210;51.502;10.722;2023-03-01T16:02:21;4.40;99.90
14252;DHT22;7210;51.502;10.722;2023-03-01T16:04:50;4.30;99.90
14252;DHT22;7210;51.502;10.722;2023-03-01T16:07:20;4.30;99.90
14252;DHT22;7210;51.502;10.722;2023-03-01T16:09:47;4.20;99.90
14252;DHT22;7210;51.502;10.722;2023-03-01T16:12:15;4.20;99.90
14252;DHT22;7210;51.502;10.722;2023-03-01T16:14:43;4.00;99.90
14252;DHT22;7210;51.502;10.722;2023-03-01T16:17:10;4.00;99.90
14252;DHT22;7210;51.502;10.722;2023-03-01T16:19:37;3.90;99.90
14252;DHT22;7210;51.502;10.722;2023-03-01T16:22:05;3.90;99.90
14252;DHT22;7210;51.502;10.722;2023-03-01T16:24:34;3.80;99.90
14252;DHT22;7210;51.502;10.722;2023-03-01T16:27:02;3.70;99.90
14252;DHT22;7210;51.502;10.722;2023-03-01T16:29:29;3.60;99.90
14252;DHT22;7210;51.502;10.722;2023-03-01T16:31:56;3.60;99.90